Time;durP1;ratioP1;P1;durP2;ratioP2;P2;SDS_P1;SDS_P2;PMS_P1;PMS_P2;Temp;Humidity;BMP_temperature;BMP_pressure;BME280_temperature;BME280_humidity;BME280_pressure;Samples;Min_cycle;Max_cycle;Signal;HPM_P1;HPM_P2
2021/11/20 00:00:50;;;;;;;10.40;9.37;;;;;;;;;;5086962;28;20224;-73
2021/11/20 00:03:15;;;;;;;10.13;8.77;;;;;;;;;;5076153;28;21869;-72
2021/11/20 00:05:42;;;;;;;9.83;8.83;;;;;;;;;;5073243;28;20229;-74
2021/11/20 00:08:09;;;;;;;10.50;9.40;;;;;;;;;;5073690;28;20190;-71
2021/11/20 00:10:35;;;;;;;11.80;10.00;;;;;;;;;;5077334;28;20269;-72
2021/11/20 00:13:00;;;;;;;11.33;8.77;;;;;;;;;;5071328;28;20180;-71
2021/11/20 00:15:28;;;;;;;12.17;9.83;;;;;;;;;;5074178;28;20206;-74
2021/11/20 00:17:54;;;;;;;13.10;10.13;;;;;;;;;;5068263;28;20238;-74
2021/11/20 00:20:20;;;;;;;11.03;9.73;;;;;;;;;;5073815;28;20204;-75
2021/11/20 00:22:47;;;;;;;14.20;10.83;;;;;;;;;;5070745;28;21754;-72
2021/11/20 00:25:20;;;;;;;12.10;10.80;;;;;;;;;;5071083;28;20650;-74
2021/11/20 00:27:45;;;;;;;12.63;11.03;;;;;;;;;;5052525;28;20271;-72
2021/11/20 00:30:14;;;;;;;12.57;10.33;;;;;;;;;;5074237;28;20197;-71
2021/11/20 00:32:41;;;;;;;12.40;10.73;;;;;;;;;;5072808;28;20814;-72
2021/11/20 00:35:08;;;;;;;12.63;11.10;;;;;;;;;;5071618;28;20742;-71
2021/11/20 00:37:33;;;;;;;12.73;10.40;;;;;;;;;;5072484;28;20300;-72
2021/11/20 00:39:59;;;;;;;13.33;10.93;;;;;;;;;;5057063;28;20295;-72
2021/11/20 00:42:24;;;;;;;12.00;10.70;;;;;;;;;;5073400;28;20172;-73
2021/11/20 00:44:49;;;;;;;13.83;11.47;;;;;;;;;;5073514;28;20172;-73
2021/11/20 00:47:15;;;;;;;13.93;11.47;;;;;;;;;;5080533;28;20565;-72
2021/11/20 00:49:41;;;;;;;13.93;11.47;;;;;;;;;;5071926;28;21304;-74
2021/11/20 00:52:06;;;;;;;13.90;11.20;;;;;;;;;;5071902;28;20195;-75
2021/11/20 00:54:32;;;;;;;13.63;12.20;;;;;;;;;;5082123;28;20525;-72
2021/11/20 00:56:57;;;;;;;15.37;11.90;;;;;;;;;;5066184;28;20741;-72
2021/11/20 00:59:22;;;;;;;14.60;12.53;;;;;;;;;;5072469;28;20196;-72
2021/11/20 01:01:49;;;;;;;14.77;11.93;;;;;;;;;;5059090;28;20189;-72
2021/11/20 01:04:15;;;;;;;18.60;12.57;;;;;;;;;;5072126;28;20618;-74
2021/11/20 01:06:42;;;;;;;14.50;13.00;;;;;;;;;;5071473;28;20176;-72
2021/11/20 01:09:08;;;;;;;17.30;13.30;;;;;;;;;;5070262;28;20279;-72
2021/11/20 01:11:44;;;;;;;16.00;13.67;;;;;;;;;;5072453;28;20272;-72
2021/11/20 01:14:11;;;;;;;16.73;13.60;;;;;;;;;;5070831;28;20663;-72
2021/11/20 01:16:37;;;;;;;15.73;12.87;;;;;;;;;;5077448;28;20211;-72
2021/11/20 01:19:03;;;;;;;16.97;14.07;;;;;;;;;;5070817;28;20661;-73
2021/11/20 01:21:29;;;;;;;18.10;14.13;;;;;;;;;;5071573;28;20196;-72
2021/11/20 01:23:55;;;;;;;19.50;15.07;;;;;;;;;;5058051;28;20589;-72
2021/11/20 01:26:21;;;;;;;16.90;14.07;;;;;;;;;;5071096;28;20254;-72
2021/11/20 01:28:49;;;;;;;16.20;14.47;;;;;;;;;;5058572;28;20183;-73
2021/11/20 01:31:14;;;;;;;20.37;15.07;;;;;;;;;;5071972;28;20614;-71
2021/11/20 01:33:41;;;;;;;17.90;14.63;;;;;;;;;;5070957;28;20792;-75
2021/11/20 01:36:07;;;;;;;18.83;15.23;;;;;;;;;;5070622;28;20207;-70
2021/11/20 01:38:33;;;;;;;21.13;15.73;;;;;;;;;;5056341;28;20173;-73
2021/11/20 01:40:58;;;;;;;21.17;16.87;;;;;;;;;;5070136;28;20207;-74
2021/11/20 01:43:23;;;;;;;20.50;15.83;;;;;;;;;;5055810;28;20279;-73
2021/11/20 01:45:54;;;;;;;19.90;15.93;;;;;;;;;;5074160;28;20188;-71
2021/11/20 01:48:44;;;;;;;26.27;17.50;;;;;;;;;;5069406;28;20294;-73
2021/11/20 01:51:15;;;;;;;20.27;16.07;;;;;;;;;;5082957;28;20239;-74
2021/11/20 01:54:01;;;;;;;19.50;15.30;;;;;;;;;;5070419;28;20645;-74
2021/11/20 01:56:31;;;;;;;23.27;17.37;;;;;;;;;;5072405;28;20209;-72
2021/11/20 01:59:07;;;;;;;21.73;16.50;;;;;;;;;;5074032;28;20237;-72
2021/11/20 02:01:35;;;;;;;20.43;16.43;;;;;;;;;;5058704;28;20204;-73
2021/11/20 02:04:24;;;;;;;25.70;17.67;;;;;;;;;;5051765;28;20180;-75
2021/11/20 02:06:54;;;;;;;23.80;16.83;;;;;;;;;;5057235;28;20222;-72
2021/11/20 02:09:19;;;;;;;26.27;17.13;;;;;;;;;;5068977;28;20195;-73
2021/11/20 02:11:47;;;;;;;24.87;18.47;;;;;;;;;;5086548;22;20708;-81
2021/11/20 02:14:14;;;;;;;22.37;17.67;;;;;;;;;;5071124;28;20498;-80
2021/11/20 02:16:45;;;;;;;22.63;17.70;;;;;;;;;;5079035;28;20219;-76
2021/11/20 02:19:14;;;;;;;23.50;17.37;;;;;;;;;;5071622;28;20187;-77
2021/11/20 02:21:59;;;;;;;22.57;17.00;;;;;;;;;;5071263;28;20200;-76
2021/11/20 02:24:24;;;;;;;22.93;17.40;;;;;;;;;;5032014;28;20964;-77
2021/11/20 02:26:49;;;;;;;23.97;17.10;;;;;;;;;;5056455;28;20645;-76
2021/11/20 02:29:15;;;;;;;21.47;17.17;;;;;;;;;;5081118;28;20531;-77
2021/11/20 02:31:46;;;;;;;20.53;16.13;;;;;;;;;;5077967;28;20311;-75
2021/11/20 02:34:12;;;;;;;21.13;16.17;;;;;;;;;;5072061;28;20256;-80
2021/11/20 02:36:37;;;;;;;21.30;16.30;;;;;;;;;;5075063;28;20261;-76
2021/11/20 02:39:13;;;;;;;24.67;17.77;;;;;;;;;;5072922;28;20209;-78
2021/11/20 02:41:39;;;;;;;22.50;17.10;;;;;;;;;;5070715;28;20898;-75
2021/11/20 02:44:05;;;;;;;23.17;16.93;;;;;;;;;;5072801;28;20184;-79
2021/11/20 02:46:34;;;;;;;20.93;15.43;;;;;;;;;;5063751;28;20187;-78
2021/11/20 02:48:59;;;;;;;22.87;16.33;;;;;;;;;;5087264;28;20556;-75
2021/11/20 02:51:27;;;;;;;25.80;18.10;;;;;;;;;;5083612;28;20241;-75
2021/11/20 02:53:55;;;;;;;22.37;16.93;;;;;;;;;;5087288;28;20185;-77
2021/11/20 02:56:22;;;;;;;24.67;17.30;;;;;;;;;;5086593;28;20824;-77
2021/11/20 02:58:48;;;;;;;26.30;16.70;;;;;;;;;;5085569;28;20173;-80
2021/11/20 03:01:18;;;;;;;24.40;16.87;;;;;;;;;;5074220;28;20304;-81
2021/11/20 03:03:43;;;;;;;23.27;16.03;;;;;;;;;;5089288;28;20208;-77
2021/11/20 03:06:08;;;;;;;24.90;16.27;;;;;;;;;;5077435;28;20223;-79
2021/11/20 03:08:34;;;;;;;24.00;15.80;;;;;;;;;;5078842;28;20709;-80
2021/11/20 03:10:59;;;;;;;23.77;16.03;;;;;;;;;;5075066;28;20288;-77
2021/11/20 03:13:24;;;;;;;25.63;17.03;;;;;;;;;;5078916;28;20192;-80
2021/11/20 03:15:50;;;;;;;22.90;16.73;;;;;;;;;;5065784;28;20188;-81
2021/11/20 03:18:15;;;;;;;22.30;16.33;;;;;;;;;;5075764;28;20176;-78
2021/11/20 03:20:42;;;;;;;20.57;15.57;;;;;;;;;;5057841;28;22153;-76
2021/11/20 03:23:27;;;;;;;22.97;16.40;;;;;;;;;;5082062;28;20723;-79
2021/11/20 03:25:52;;;;;;;21.37;15.53;;;;;;;;;;5074542;28;20221;-77
2021/11/20 03:28:18;;;;;;;24.77;16.57;;;;;;;;;;5077481;28;20180;-81
2021/11/20 03:30:43;;;;;;;24.70;17.43;;;;;;;;;;5074622;28;20222;-79
2021/11/20 03:33:08;;;;;;;24.83;17.67;;;;;;;;;;5077459;28;20278;-76
2021/11/20 03:35:34;;;;;;;22.27;16.60;;;;;;;;;;5075259;28;20747;-80
2021/11/20 03:37:59;;;;;;;23.53;17.43;;;;;;;;;;5078408;28;20200;-79
2021/11/20 03:40:25;;;;;;;21.67;16.17;;;;;;;;;;5073132;28;20692;-77
2021/11/20 03:42:51;;;;;;;21.10;15.33;;;;;;;;;;5074174;28;20463;-76
2021/11/20 03:45:18;;;;;;;22.63;16.20;;;;;;;;;;5074836;28;20172;-77
2021/11/20 03:47:44;;;;;;;23.53;16.90;;;;;;;;;;5080746;28;20626;-76
2021/11/20 03:50:10;;;;;;;23.30;16.90;;;;;;;;;;5071756;28;20245;-80
2021/11/20 03:52:35;;;;;;;26.27;17.13;;;;;;;;;;5072318;28;20186;-78
2021/11/20 03:55:01;;;;;;;22.43;16.23;;;;;;;;;;5073508;28;20184;-76
2021/11/20 03:57:26;;;;;;;24.97;17.47;;;;;;;;;;5073837;28;20200;-77
2021/11/20 03:59:51;;;;;;;24.27;16.97;;;;;;;;;;5074029;28;20179;-79
2021/11/20 04:02:16;;;;;;;26.10;17.37;;;;;;;;;;5059582;28;20349;-76
2021/11/20 04:04:42;;;;;;;24.20;16.53;;;;;;;;;;5072963;28;20838;-80
2021/11/20 04:07:07;;;;;;;25.20;16.70;;;;;;;;;;5073349;28;20181;-79
2021/11/20 04:09:32;;;;;;;26.30;17.27;;;;;;;;;;5072327;28;20173;-78
2021/11/20 04:11:58;;;;;;;26.63;17.60;;;;;;;;;;5072487;28;20566;-79
2021/11/20 04:14:23;;;;;;;25.40;17.03;;;;;;;;;;5086028;28;20277;-77
2021/11/20 04:16:49;;;;;;;24.40;17.10;;;;;;;;;;5063124;28;20238;-81
2021/11/20 04:19:15;;;;;;;25.93;17.30;;;;;;;;;;5073783;28;20172;-77
2021/11/20 04:21:40;;;;;;;25.43;17.00;;;;;;;;;;5060252;28;20268;-77
2021/11/20 04:24:06;;;;;;;26.43;17.40;;;;;;;;;;5072083;28;20211;-77
2021/11/20 04:26:31;;;;;;;26.27;17.77;;;;;;;;;;5076357;28;20188;-78
2021/11/20 04:28:57;;;;;;;26.07;17.50;;;;;;;;;;5073824;28;20764;-78
2021/11/20 04:31:23;;;;;;;25.73;17.90;;;;;;;;;;5075257;28;20205;-80
2021/11/20 04:33:49;;;;;;;25.33;17.57;;;;;;;;;;5073656;28;20216;-77
2021/11/20 04:36:14;;;;;;;26.07;18.60;;;;;;;;;;5079577;28;20192;-81
2021/11/20 04:38:39;;;;;;;26.43;17.37;;;;;;;;;;5072506;28;20187;-80
2021/11/20 04:41:05;;;;;;;25.50;18.10;;;;;;;;;;5076256;28;20191;-78
2021/11/20 04:43:31;;;;;;;26.57;16.97;;;;;;;;;;5073756;28;20180;-77
2021/11/20 04:45:56;;;;;;;25.87;19.03;;;;;;;;;;5079063;28;20267;-80
2021/11/20 04:48:21;;;;;;;24.00;17.70;;;;;;;;;;5071613;28;20200;-77
2021/11/20 04:50:47;;;;;;;24.40;17.23;;;;;;;;;;5077906;28;20279;-78
2021/11/20 04:53:13;;;;;;;24.37;16.73;;;;;;;;;;5075485;28;20180;-81
2021/11/20 04:55:38;;;;;;;24.17;17.50;;;;;;;;;;5076752;28;20186;-77
2021/11/20 04:58:04;;;;;;;26.20;18.67;;;;;;;;;;5058417;28;20184;-75
2021/11/20 05:00:31;;;;;;;25.07;18.27;;;;;;;;;;5078187;28;20196;-76
2021/11/20 05:02:56;;;;;;;25.80;18.60;;;;;;;;;;5075575;28;20180;-79
2021/11/20 05:05:22;;;;;;;28.43;19.40;;;;;;;;;;5073629;28;20198;-76
2021/11/20 05:07:47;;;;;;;29.80;18.60;;;;;;;;;;5072888;28;20698;-78
2021/11/20 05:10:13;;;;;;;27.77;18.00;;;;;;;;;;5073285;28;20735;-77
2021/11/20 05:12:38;;;;;;;26.60;17.50;;;;;;;;;;5071844;28;20569;-75
2021/11/20 05:15:04;;;;;;;27.40;18.77;;;;;;;;;;5074066;28;20196;-76
2021/11/20 05:17:30;;;;;;;30.33;18.87;;;;;;;;;;5073930;28;20204;-76
2021/11/20 05:19:55;;;;;;;26.93;19.50;;;;;;;;;;5072513;28;20532;-79
2021/11/20 05:22:20;;;;;;;27.30;20.27;;;;;;;;;;5073536;28;20176;-77
2021/11/20 05:24:45;;;;;;;29.00;19.50;;;;;;;;;;5059717;28;20609;-77
2021/11/20 05:27:10;;;;;;;26.17;18.17;;;;;;;;;;5060315;28;20183;-77
2021/11/20 05:29:52;;;;;;;27.40;19.30;;;;;;;;;;5071011;28;21425;-77
2021/11/20 05:32:17;;;;;;;26.33;18.60;;;;;;;;;;5071553;28;20616;-81
2021/11/20 05:34:43;;;;;;;27.30;19.83;;;;;;;;;;5070881;28;20267;-81
2021/11/20 05:37:08;;;;;;;24.80;17.57;;;;;;;;;;5074951;28;20761;-78
2021/11/20 05:39:33;;;;;;;26.00;19.73;;;;;;;;;;5069813;28;20179;-77
2021/11/20 05:41:59;;;;;;;27.43;19.00;;;;;;;;;;5068276;28;20345;-76
2021/11/20 05:44:24;;;;;;;29.80;20.90;;;;;;;;;;5076317;28;20260;-76
2021/11/20 05:46:51;;;;;;;30.27;20.70;;;;;;;;;;5058768;28;20188;-77
2021/11/20 05:49:16;;;;;;;33.33;21.97;;;;;;;;;;5074342;28;20639;-77
2021/11/20 05:51:41;;;;;;;30.33;20.67;;;;;;;;;;5072515;28;20653;-76
2021/11/20 05:54:07;;;;;;;27.13;19.23;;;;;;;;;;5076887;28;20180;-77
2021/11/20 05:56:33;;;;;;;28.83;21.83;;;;;;;;;;5072722;28;20214;-78
2021/11/20 05:58:58;;;;;;;29.87;20.60;;;;;;;;;;5071382;28;20180;-80
2021/11/20 06:01:23;;;;;;;30.03;21.77;;;;;;;;;;5078299;28;20198;-79
2021/11/20 06:03:49;;;;;;;31.27;21.33;;;;;;;;;;5072629;28;20173;-80
2021/11/20 06:06:15;;;;;;;28.00;21.30;;;;;;;;;;5072136;28;20180;-77
2021/11/20 06:08:40;;;;;;;30.10;21.97;;;;;;;;;;5069284;28;20180;-77
2021/11/20 06:11:05;;;;;;;29.60;22.67;;;;;;;;;;5072248;28;20596;-77
2021/11/20 06:13:31;;;;;;;28.90;22.47;;;;;;;;;;5072344;28;20191;-76
2021/11/20 06:15:57;;;;;;;30.73;23.77;;;;;;;;;;5061455;28;20214;-77
2021/11/20 06:18:22;;;;;;;30.40;22.93;;;;;;;;;;5072870;28;20680;-81
2021/11/20 06:20:48;;;;;;;29.83;22.50;;;;;;;;;;5073371;28;20680;-78
2021/11/20 06:23:14;;;;;;;30.77;23.03;;;;;;;;;;5070983;28;20188;-76
2021/11/20 06:25:39;;;;;;;26.00;21.07;;;;;;;;;;5070585;28;20177;-80
2021/11/20 06:28:04;;;;;;;25.57;20.67;;;;;;;;;;5070209;28;20183;-76
2021/11/20 06:30:29;;;;;;;25.40;20.97;;;;;;;;;;5072258;28;20196;-76
2021/11/20 06:32:55;;;;;;;26.87;21.10;;;;;;;;;;5070721;28;20268;-78
2021/11/20 06:35:22;;;;;;;28.13;21.47;;;;;;;;;;5073440;28;20649;-79
2021/11/20 06:37:48;;;;;;;25.57;21.10;;;;;;;;;;5075150;28;20234;-77
2021/11/20 06:40:18;;;;;;;28.70;23.10;;;;;;;;;;5074830;28;20192;-75
2021/11/20 06:42:44;;;;;;;26.33;20.93;;;;;;;;;;5064876;28;21017;-75
2021/11/20 06:45:11;;;;;;;29.03;20.37;;;;;;;;;;5077190;28;20321;-76
2021/11/20 06:47:36;;;;;;;27.97;22.37;;;;;;;;;;5076219;28;20181;-81
2021/11/20 06:50:02;;;;;;;26.53;22.47;;;;;;;;;;5075056;28;20204;-78
2021/11/20 06:52:27;;;;;;;27.50;20.77;;;;;;;;;;5072542;28;20232;-78
2021/11/20 06:54:52;;;;;;;30.73;22.63;;;;;;;;;;5079949;28;20195;-77
2021/11/20 06:57:46;;;;;;;28.60;22.73;;;;;;;;;;5075372;28;20204;-80
2021/11/20 07:02:49;;;;;;;29.40;21.83;;;;;;;;;;5074897;28;20225;-78
2021/11/20 07:05:14;;;;;;;27.83;20.37;;;;;;;;;;5076043;28;20181;-77
2021/11/20 07:07:39;;;;;;;27.33;20.57;;;;;;;;;;5073629;28;20650;-80
2021/11/20 07:10:05;;;;;;;25.10;19.80;;;;;;;;;;5074683;28;20290;-77
2021/11/20 07:12:31;;;;;;;26.73;20.00;;;;;;;;;;5074944;28;20624;-77
2021/11/20 07:14:56;;;;;;;28.07;21.80;;;;;;;;;;5077332;28;20283;-77
2021/11/20 07:17:21;;;;;;;28.50;22.23;;;;;;;;;;5077845;28;20239;-75
2021/11/20 07:19:47;;;;;;;32.53;24.67;;;;;;;;;;5062863;28;20181;-77
2021/11/20 07:22:12;;;;;;;30.83;23.73;;;;;;;;;;5074919;28;20637;-77
2021/11/20 07:24:37;;;;;;;32.60;25.00;;;;;;;;;;5074069;28;20851;-77
2021/11/20 07:27:03;;;;;;;33.07;24.90;;;;;;;;;;5073626;28;20206;-78
2021/11/20 07:29:28;;;;;;;31.97;25.07;;;;;;;;;;5073387;28;20555;-79
2021/11/20 07:31:53;;;;;;;31.00;23.50;;;;;;;;;;5077356;28;20653;-79
2021/11/20 07:34:18;;;;;;;33.03;24.30;;;;;;;;;;5078039;28;20195;-77
2021/11/20 07:36:43;;;;;;;31.40;24.57;;;;;;;;;;5062854;28;20243;-79
2021/11/20 07:39:11;;;;;;;30.40;25.00;;;;;;;;;;5073697;28;20540;-78
2021/11/20 07:41:36;;;;;;;28.53;22.57;;;;;;;;;;5074703;28;20200;-77
2021/11/20 07:44:01;;;;;;;29.67;23.67;;;;;;;;;;5074208;28;20530;-78
2021/11/20 07:46:26;;;;;;;30.80;23.40;;;;;;;;;;5076023;28;20702;-80
2021/11/20 07:48:52;;;;;;;30.27;22.93;;;;;;;;;;5063614;28;20262;-76
2021/11/20 07:51:17;;;;;;;29.77;23.03;;;;;;;;;;5072139;28;20641;-80
2021/11/20 07:53:44;;;;;;;31.47;23.63;;;;;;;;;;5073362;28;20566;-76
2021/11/20 07:56:10;;;;;;;30.37;23.53;;;;;;;;;;5069926;28;20216;-80
2021/11/20 07:58:36;;;;;;;30.70;22.13;;;;;;;;;;5077119;28;20172;-76
2021/11/20 08:01:02;;;;;;;30.37;23.27;;;;;;;;;;5074986;28;20853;-76
2021/11/20 08:03:27;;;;;;;31.43;24.30;;;;;;;;;;5074079;28;20647;-76
2021/11/20 08:05:53;;;;;;;31.20;23.77;;;;;;;;;;5075905;28;21466;-79
2021/11/20 08:08:20;;;;;;;29.57;22.47;;;;;;;;;;5077135;28;20192;-78
2021/11/20 08:10:45;;;;;;;28.17;22.23;;;;;;;;;;5087203;22;20240;-71
2021/11/20 08:13:10;;;;;;;31.13;23.77;;;;;;;;;;5057262;28;20212;-69
2021/11/20 08:15:36;;;;;;;29.57;23.67;;;;;;;;;;5059680;28;20185;-69
2021/11/20 08:18:01;;;;;;;31.10;24.27;;;;;;;;;;5055374;28;20208;-70
2021/11/20 08:20:29;;;;;;;30.43;24.00;;;;;;;;;;5052788;28;20177;-70
2021/11/20 08:22:54;;;;;;;32.63;24.83;;;;;;;;;;5051723;28;20177;-70
2021/11/20 08:25:21;;;;;;;28.60;22.63;;;;;;;;;;5054040;28;20522;-69
2021/11/20 08:27:47;;;;;;;32.80;24.63;;;;;;;;;;5053823;28;20195;-70
2021/11/20 08:30:13;;;;;;;30.07;24.97;;;;;;;;;;5052952;28;20189;-68
2021/11/20 08:32:38;;;;;;;28.67;23.60;;;;;;;;;;5055166;28;20185;-70
2021/11/20 08:35:04;;;;;;;30.57;23.43;;;;;;;;;;5054050;28;20904;-70
2021/11/20 08:37:30;;;;;;;30.50;23.97;;;;;;;;;;5055213;28;20209;-71
2021/11/20 08:39:58;;;;;;;29.67;22.43;;;;;;;;;;5051615;28;20178;-68
2021/11/20 08:42:23;;;;;;;31.10;23.43;;;;;;;;;;5053949;28;20263;-70
2021/11/20 08:44:48;;;;;;;32.60;25.27;;;;;;;;;;5054411;28;20323;-70
2021/11/20 08:47:14;;;;;;;29.73;24.50;;;;;;;;;;5056154;28;20269;-69
2021/11/20 08:49:39;;;;;;;29.40;23.63;;;;;;;;;;5052167;28;20654;-68
2021/11/20 08:52:05;;;;;;;32.07;23.13;;;;;;;;;;5053797;28;20673;-70
2021/11/20 08:54:30;;;;;;;30.87;25.00;;;;;;;;;;5053990;28;20180;-70
2021/11/20 08:56:56;;;;;;;34.17;24.73;;;;;;;;;;5052069;28;20205;-69
2021/11/20 08:59:23;;;;;;;31.60;25.13;;;;;;;;;;5055040;28;20239;-68
2021/11/20 09:01:54;;;;;;;33.87;25.63;;;;;;;;;;5049915;28;20197;-70
2021/11/20 09:04:23;;;;;;;36.10;26.97;;;;;;;;;;5037515;28;20284;-69
2021/11/20 09:06:48;;;;;;;38.27;27.20;;;;;;;;;;5051321;28;20265;-69
2021/11/20 09:09:14;;;;;;;35.23;26.20;;;;;;;;;;5051079;28;20207;-68
2021/11/20 09:11:51;;;;;;;36.17;27.57;;;;;;;;;;5049888;28;20496;-70
2021/11/20 09:14:16;;;;;;;39.17;27.83;;;;;;;;;;5054816;28;20866;-69
2021/11/20 09:16:42;;;;;;;37.03;26.27;;;;;;;;;;5059207;28;20201;-68
2021/11/20 09:19:08;;;;;;;36.43;27.00;;;;;;;;;;5054691;28;20429;-68
2021/11/20 09:21:34;;;;;;;40.17;27.87;;;;;;;;;;5053546;28;20205;-70
2021/11/20 09:23:59;;;;;;;36.40;27.27;;;;;;;;;;5053001;28;20277;-69
2021/11/20 09:26:25;;;;;;;40.87;29.40;;;;;;;;;;5053002;28;20234;-70
2021/11/20 09:28:50;;;;;;;38.60;27.70;;;;;;;;;;5052240;28;20217;-68
2021/11/20 09:31:16;;;;;;;34.23;26.23;;;;;;;;;;5050567;28;20732;-70
2021/11/20 09:34:10;;;;;;;36.80;27.47;;;;;;;;;;5056918;28;20607;-69
2021/11/20 09:36:35;;;;;;;36.27;26.90;;;;;;;;;;5049621;28;22531;-68
2021/11/20 09:39:01;;;;;;;39.83;28.00;;;;;;;;;;5052521;28;20180;-69
2021/11/20 09:41:31;;;;;;;37.53;26.40;;;;;;;;;;5051435;28;20227;-69
2021/11/20 09:43:59;;;;;;;38.60;27.87;;;;;;;;;;5051409;28;20184;-67
2021/11/20 09:46:37;;;;;;;39.67;28.73;;;;;;;;;;5052680;28;20315;-70
2021/11/20 09:49:11;;;;;;;38.90;28.23;;;;;;;;;;5051421;28;20184;-68
2021/11/20 09:51:38;;;;;;;39.63;28.33;;;;;;;;;;5051881;28;20212;-69
2021/11/20 09:54:06;;;;;;;42.90;28.47;;;;;;;;;;5052007;28;20219;-69
2021/11/20 09:56:36;;;;;;;43.87;29.20;;;;;;;;;;5052498;28;20240;-70
2021/11/20 09:59:04;;;;;;;39.50;27.60;;;;;;;;;;5052284;28;20246;-68
2021/11/20 10:01:33;;;;;;;38.83;27.77;;;;;;;;;;5052483;28;20280;-69
2021/11/20 10:04:01;;;;;;;39.33;27.27;;;;;;;;;;5041991;28;20189;-68
2021/11/20 10:06:29;;;;;;;39.67;28.27;;;;;;;;;;5055798;28;20185;-69
2021/11/20 10:09:13;;;;;;;44.27;30.77;;;;;;;;;;5052055;28;20184;-69
2021/11/20 10:11:58;;;;;;;40.63;27.90;;;;;;;;;;5053049;28;20421;-70
2021/11/20 10:14:35;;;;;;;38.70;27.10;;;;;;;;;;5048234;28;20193;-68
2021/11/20 10:17:10;;;;;;;46.93;30.13;;;;;;;;;;5060082;28;20192;-68
2021/11/20 10:19:41;;;;;;;38.53;27.17;;;;;;;;;;5043968;28;21735;-70
2021/11/20 10:22:15;;;;;;;39.07;27.67;;;;;;;;;;5056989;28;20209;-69
2021/11/20 10:25:00;;;;;;;38.60;27.27;;;;;;;;;;5057006;28;20633;-67
2021/11/20 10:27:28;;;;;;;42.17;29.07;;;;;;;;;;5022609;28;20219;-71
2021/11/20 10:30:07;;;;;;;40.97;29.23;;;;;;;;;;5038484;28;20277;-69
2021/11/20 10:32:36;;;;;;;43.07;30.00;;;;;;;;;;5056556;28;20298;-69
2021/11/20 10:35:16;;;;;;;40.97;29.40;;;;;;;;;;5057388;28;20564;-69
2021/11/20 10:37:47;;;;;;;39.03;27.90;;;;;;;;;;5055048;28;21186;-70
2021/11/20 10:40:12;;;;;;;41.57;27.33;;;;;;;;;;5044252;28;21805;-71
2021/11/20 10:42:41;;;;;;;40.23;28.07;;;;;;;;;;5055203;28;20197;-69
2021/11/20 10:45:09;;;;;;;51.63;35.80;;;;;;;;;;5047164;28;20859;-69
2021/11/20 10:47:39;;;;;;;44.83;30.70;;;;;;;;;;5056385;28;20294;-69
2021/11/20 10:50:04;;;;;;;40.07;28.67;;;;;;;;;;5037781;28;20193;-70
2021/11/20 10:52:44;;;;;;;40.58;29.10;;;;;;;;;;5056667;28;20196;-70
2021/11/20 10:55:14;;;;;;;42.10;30.15;;;;;;;;;;5043146;28;20433;-68
2021/11/20 10:57:50;;;;;;;43.03;30.43;;;;;;;;;;5055336;28;20200;-72
2021/11/20 11:00:28;;;;;;;43.63;31.10;;;;;;;;;;5055906;28;20178;-70
2021/11/20 11:03:11;;;;;;;43.07;30.07;;;;;;;;;;5055695;28;20802;-69
2021/11/20 11:05:41;;;;;;;43.30;29.97;;;;;;;;;;5044620;28;20271;-69
2021/11/20 11:08:25;;;;;;;39.85;29.02;;;;;;;;;;5056580;28;20674;-69
2021/11/20 11:10:52;;;;;;;41.92;29.45;;;;;;;;;;5056232;28;20205;-68
2021/11/20 11:13:29;;;;;;;40.35;28.63;;;;;;;;;;5053527;28;20189;-69
2021/11/20 11:15:55;;;;;;;43.70;31.17;;;;;;;;;;5056602;28;20634;-67
2021/11/20 11:18:26;;;;;;;45.35;30.95;;;;;;;;;;5056731;28;20682;-69
2021/11/20 11:20:57;;;;;;;43.17;31.00;;;;;;;;;;5052817;28;20472;-68
2021/11/20 11:23:25;;;;;;;40.05;28.98;;;;;;;;;;5055157;28;20177;-69
2021/11/20 11:25:53;;;;;;;37.33;27.40;;;;;;;;;;5053445;28;20187;-68
2021/11/20 11:28:34;;;;;;;41.90;28.92;;;;;;;;;;5053708;28;20177;-69
2021/11/20 11:31:18;;;;;;;38.42;28.95;;;;;;;;;;5054229;28;20691;-69
2021/11/20 11:33:45;;;;;;;39.17;28.73;;;;;;;;;;5055206;28;20192;-67
2021/11/20 11:36:16;;;;;;;39.25;28.90;;;;;;;;;;5052525;28;20263;-68
2021/11/20 11:39:00;;;;;;;37.83;28.43;;;;;;;;;;5044001;28;20187;-72
2021/11/20 11:41:31;;;;;;;37.08;27.30;;;;;;;;;;5052892;28;20208;-69
2021/11/20 11:44:05;;;;;;;36.78;25.58;;;;;;;;;;5056321;28;20470;-69
2021/11/20 11:46:52;;;;;;;39.08;26.15;;;;;;;;;;5054372;28;20293;-70
2021/11/20 11:49:37;;;;;;;36.45;25.65;;;;;;;;;;5057804;28;20216;-69
2021/11/20 11:52:21;;;;;;;41.78;26.50;;;;;;;;;;5053236;28;20197;-70
2021/11/20 11:55:02;;;;;;;36.65;25.58;;;;;;;;;;5053061;28;20366;-69
2021/11/20 11:57:49;;;;;;;33.05;22.98;;;;;;;;;;5038372;28;20192;-69
2021/11/20 12:00:18;;;;;;;32.65;23.88;;;;;;;;;;5053842;28;20231;-70
2021/11/20 12:02:46;;;;;;;36.58;24.90;;;;;;;;;;5042985;28;20254;-68
2021/11/20 12:05:20;;;;;;;34.00;23.83;;;;;;;;;;5053822;28;20189;-69
2021/11/20 12:07:48;;;;;;;36.00;24.63;;;;;;;;;;5055406;28;20191;-68
2021/11/20 12:10:22;;;;;;;32.55;23.02;;;;;;;;;;5055033;28;20180;-69
2021/11/20 12:12:54;;;;;;;34.00;24.83;;;;;;;;;;5053513;28;20273;-69
2021/11/20 12:15:19;;;;;;;35.20;24.73;;;;;;;;;;5057024;28;20705;-69
2021/11/20 12:17:50;;;;;;;34.40;24.33;;;;;;;;;;5058028;28;20205;-69
2021/11/20 12:20:20;;;;;;;34.67;24.00;;;;;;;;;;5055833;28;20523;-68
2021/11/20 12:22:57;;;;;;;35.07;21.90;;;;;;;;;;5055393;28;20599;-67
2021/11/20 12:25:25;;;;;;;33.90;22.10;;;;;;;;;;5053736;28;20180;-68
2021/11/20 12:27:52;;;;;;;32.87;23.63;;;;;;;;;;5053459;28;20173;-69
2021/11/20 12:30:18;;;;;;;31.57;22.80;;;;;;;;;;5054374;28;20188;-68
2021/11/20 12:32:53;;;;;;;34.83;22.90;;;;;;;;;;5066534;28;20177;-69
2021/11/20 12:35:37;;;;;;;31.60;21.80;;;;;;;;;;5055762;28;20428;-68
2021/11/20 12:38:21;;;;;;;31.93;22.43;;;;;;;;;;5053311;28;20204;-68
2021/11/20 12:40:52;;;;;;;33.50;23.83;;;;;;;;;;5052476;28;20238;-68
2021/11/20 12:43:20;;;;;;;30.87;20.73;;;;;;;;;;5059953;28;20272;-69
2021/11/20 12:45:45;;;;;;;31.37;21.93;;;;;;;;;;5073044;28;20193;-68
2021/11/20 12:48:29;;;;;;;33.70;22.10;;;;;;;;;;5045447;28;20188;-69
2021/11/20 12:51:17;;;;;;;27.83;20.77;;;;;;;;;;5054028;28;20447;-68
2021/11/20 12:53:51;;;;;;;33.47;22.93;;;;;;;;;;5053382;28;20185;-69
2021/11/20 12:56:16;;;;;;;33.47;21.07;;;;;;;;;;5053375;28;20553;-69
2021/11/20 12:58:43;;;;;;;33.63;21.73;;;;;;;;;;5054865;28;20508;-68
2021/11/20 13:01:10;;;;;;;28.52;20.20;;;;;;;;;;5054035;28;20437;-69
2021/11/20 13:03:40;;;;;;;30.87;20.07;;;;;;;;;;5053575;28;20605;-68
2021/11/20 13:06:23;;;;;;;29.33;20.67;;;;;;;;;;5052648;28;20181;-68
2021/11/20 13:08:51;;;;;;;32.23;21.90;;;;;;;;;;5052959;28;20625;-69
2021/11/20 13:11:16;;;;;;;30.37;20.17;;;;;;;;;;5054138;28;20233;-68
2021/11/20 13:13:46;;;;;;;30.37;20.70;;;;;;;;;;5042509;28;20280;-69
2021/11/20 13:16:18;;;;;;;28.60;19.50;;;;;;;;;;5042004;28;20188;-69
2021/11/20 13:18:55;;;;;;;30.37;20.10;;;;;;;;;;5051804;28;20188;-70
2021/11/20 13:21:26;;;;;;;31.17;20.33;;;;;;;;;;5053818;28;20883;-70
2021/11/20 13:24:01;;;;;;;31.00;19.97;;;;;;;;;;5053306;28;20188;-68
2021/11/20 13:26:27;;;;;;;30.57;19.60;;;;;;;;;;5054975;28;20287;-69
2021/11/20 13:28:52;;;;;;;27.40;18.83;;;;;;;;;;5055188;28;20206;-70
2021/11/20 13:31:18;;;;;;;26.67;18.43;;;;;;;;;;5051582;28;20242;-69
2021/11/20 13:33:44;;;;;;;27.77;18.90;;;;;;;;;;5052800;28;20185;-69
2021/11/20 13:36:09;;;;;;;29.07;18.63;;;;;;;;;;5052600;28;20740;-69
2021/11/20 13:38:35;;;;;;;26.70;18.30;;;;;;;;;;5054189;28;20205;-70
2021/11/20 13:41:01;;;;;;;27.60;20.00;;;;;;;;;;5051296;28;20213;-69
2021/11/20 13:43:28;;;;;;;28.87;18.07;;;;;;;;;;5038779;28;20184;-68
2021/11/20 13:45:53;;;;;;;25.80;17.90;;;;;;;;;;5056280;28;20181;-68
2021/11/20 13:48:20;;;;;;;29.23;19.70;;;;;;;;;;5051867;28;20189;-69
2021/11/20 13:50:46;;;;;;;27.37;18.80;;;;;;;;;;5057993;28;20485;-68
2021/11/20 13:53:12;;;;;;;27.37;19.07;;;;;;;;;;5055619;28;20641;-68
2021/11/20 13:55:37;;;;;;;28.77;19.83;;;;;;;;;;5056819;28;20752;-70
2021/11/20 13:58:04;;;;;;;27.30;18.10;;;;;;;;;;5054851;28;20235;-69
2021/11/20 14:00:29;;;;;;;25.70;18.00;;;;;;;;;;5041413;28;20189;-68
2021/11/20 14:02:55;;;;;;;26.60;17.97;;;;;;;;;;5052348;28;20205;-71
2021/11/20 14:05:22;;;;;;;27.80;18.77;;;;;;;;;;5053199;28;20188;-70
2021/11/20 14:07:48;;;;;;;28.83;19.23;;;;;;;;;;5040432;28;20184;-67
2021/11/20 14:10:29;;;;;;;28.33;19.77;;;;;;;;;;5051505;28;20688;-69
2021/11/20 14:13:16;;;;;;;29.90;19.37;;;;;;;;;;5059752;22;21054;-74
2021/11/20 14:15:49;;;;;;;26.43;18.50;;;;;;;;;;5056170;28;20179;-75
2021/11/20 14:18:15;;;;;;;26.43;18.00;;;;;;;;;;5051774;28;20216;-74
2021/11/20 14:20:46;;;;;;;25.63;18.13;;;;;;;;;;5053287;28;20194;-74
2021/11/20 14:23:13;;;;;;;28.20;17.53;;;;;;;;;;5050231;28;20226;-75
2021/11/20 14:25:38;;;;;;;26.07;17.50;;;;;;;;;;5051384;28;20177;-73